Time;durP1;ratioP1;P1;durP2;ratioP2;P2;SDS_P1;SDS_P2;PMS_P1;PMS_P2;Temp;Humidity;BMP_temperature;BMP_pressure;BME280_temperature;BME280_humidity;BME280_pressure;Samples;Min_cycle;Max_cycle;Signal;HPM_P1;HPM_P2
2023/08/01 00:02:49;;;;;;;;;;;;;;;22.03;47.13;94916.53;10434246;28;2058;-67
2023/08/01 00:07:49;;;;;;;;;;;;;;;22.03;47.04;94913.91;10436330;28;2023;-68
2023/08/01 00:12:50;;;;;;;;;;;;;;;21.98;46.53;94898.19;10444136;28;1866;-67
2023/08/01 00:17:50;;;;;;;;;;;;;;;21.98;46.57;94888.41;10439604;28;2205;-68
2023/08/01 00:22:50;;;;;;;;;;;;;;;21.98;46.72;94882.34;10444057;28;2247;-67
2023/08/01 00:27:51;;;;;;;;;;;;;;;21.95;46.24;94873.16;10450405;28;1893;-67
2023/08/01 00:32:51;;;;;;;;;;;;;;;21.91;46.38;94864.31;10450612;28;1838;-71
2023/08/01 00:37:51;;;;;;;;;;;;;;;21.86;46.01;94867.84;10455882;28;4502;-67
2023/08/01 00:42:56;;;;;;;;;;;;;;;21.83;46.24;94849.22;10446862;28;2072;-72
2023/08/01 00:47:56;;;;;;;;;;;;;;;21.85;45.92;94847.03;10452731;28;2009;-68
2023/08/01 00:52:56;;;;;;;;;;;;;;;21.84;46.27;94821.75;10454789;28;2040;-69
2023/08/01 00:57:57;;;;;;;;;;;;;;;21.85;46.33;94821.44;10448909;28;2123;-66
2023/08/01 01:02:57;;;;;;;;;;;;;;;21.85;46.34;94818.03;10479122;28;2241;-67
2023/08/01 01:07:57;;;;;;;;;;;;;;;21.84;46.45;94811.19;10453438;28;1987;-67
2023/08/01 01:12:58;;;;;;;;;;;;;;;21.84;46.62;94808.56;10446634;28;2482;-67
2023/08/01 01:17:58;;;;;;;;;;;;;;;21.81;46.58;94798.56;10445445;28;2258;-67
2023/08/01 01:22:58;;;;;;;;;;;;;;;21.81;46.68;94780.09;10448379;28;2059;-67
2023/08/01 01:27:58;;;;;;;;;;;;;;;21.79;46.63;94774.38;10447996;28;2207;-66
2023/08/01 01:32:59;;;;;;;;;;;;;;;21.77;46.65;94782.59;10450319;28;2044;-67
2023/08/01 01:38:03;;;;;;;;;;;;;;;21.75;46.86;94774.19;10477746;28;4482;-66
2023/08/01 01:43:03;;;;;;;;;;;;;;;21.76;46.86;94770.47;10446131;28;2043;-66
2023/08/01 01:48:04;;;;;;;;;;;;;;;21.76;47.17;94764.44;10448720;28;1884;-67
2023/08/01 01:53:05;;;;;;;;;;;;;;;21.82;47.14;94763.25;10456620;28;2020;-65
2023/08/01 01:58:06;;;;;;;;;;;;;;;21.87;47.29;94757.81;10448388;28;1989;-65
2023/08/01 02:03:10;;;;;;;;;;;;;;;21.91;47.24;94742.94;10445412;28;1977;-65
2023/08/01 02:08:10;;;;;;;;;;;;;;;21.96;47.35;94721.69;10441235;28;1920;-65
2023/08/01 02:13:10;;;;;;;;;;;;;;;22.02;47.49;94717.03;10449008;28;2023;-65
2023/08/01 02:18:11;;;;;;;;;;;;;;;22.03;47.42;94714.09;10441465;28;1830;-66
2023/08/01 02:23:11;;;;;;;;;;;;;;;22.07;47.61;94701.84;10452435;28;1897;-65
2023/08/01 02:28:12;;;;;;;;;;;;;;;22.10;47.42;94690.69;10449002;28;1896;-67
2023/08/01 02:33:12;;;;;;;;;;;;;;;22.13;47.57;94695.34;10449899;28;1831;-66
2023/08/01 02:38:12;;;;;;;;;;;;;;;22.15;47.65;94698.47;10438992;28;4545;-65
2023/08/01 02:43:13;;;;;;;;;;;;;;;22.17;47.65;94698.94;10448278;28;1930;-66
2023/08/01 02:48:13;;;;;;;;;;;;;;;22.19;47.74;94694.13;10453139;28;2051;-65
2023/08/01 02:53:13;;;;;;;;;;;;;;;22.22;47.74;94697.97;10452454;28;1850;-65
2023/08/01 02:58:14;;;;;;;;;;;;;;;22.22;47.56;94698.75;10446712;28;1865;-66
2023/08/01 03:03:15;;;;;;;;;;;;;;;22.25;47.63;94700.00;10440519;28;1910;-66
2023/08/01 03:08:15;;;;;;;;;;;;;;;22.25;47.94;94715.84;10441883;28;1865;-66
2023/08/01 03:13:15;;;;;;;;;;;;;;;22.25;47.86;94715.84;10448217;28;1890;-67
2023/08/01 03:18:15;;;;;;;;;;;;;;;22.24;48.22;94701.88;10444766;28;1946;-67
2023/08/01 03:23:16;;;;;;;;;;;;;;;22.25;48.33;94700.81;10441715;28;1994;-67
2023/08/01 03:28:16;;;;;;;;;;;;;;;22.25;48.52;94714.00;10450366;28;2032;-65
2023/08/01 03:33:16;;;;;;;;;;;;;;;22.25;48.52;94716.63;10440364;28;1914;-66
2023/08/01 03:38:16;;;;;;;;;;;;;;;22.26;48.51;94715.53;10432421;28;4438;-66
2023/08/01 03:43:17;;;;;;;;;;;;;;;22.23;48.82;94718.81;10443599;28;1967;-66
2023/08/01 03:48:17;;;;;;;;;;;;;;;22.23;48.75;94718.81;10446601;28;1889;-66
2023/08/01 03:53:17;;;;;;;;;;;;;;;22.24;49.15;94717.72;10441552;28;1807;-66
2023/08/01 03:58:17;;;;;;;;;;;;;;;22.26;49.32;94727.94;10453050;28;1927;-66
2023/08/01 04:03:18;;;;;;;;;;;;;;;22.26;49.22;94734.03;10450995;28;1983;-68
2023/08/01 04:08:18;;;;;;;;;;;;;;;22.30;49.47;94750.00;10454824;28;1866;-66
2023/08/01 04:13:18;;;;;;;;;;;;;;;22.28;49.57;94739.75;10480762;28;1821;-66
2023/08/01 04:18:18;;;;;;;;;;;;;;;22.30;49.64;94750.00;10452688;28;1869;-66
2023/08/01 04:23:19;;;;;;;;;;;;;;;22.31;49.85;94738.38;10446860;28;1918;-66
2023/08/01 04:28:19;;;;;;;;;;;;;;;22.32;49.66;94737.28;10449587;28;1900;-66
2023/08/01 04:33:19;;;;;;;;;;;;;;;22.35;49.44;94750.66;10447405;28;2094;-66
2023/08/01 04:38:19;;;;;;;;;;;;;;;22.35;49.60;94736.69;10453518;28;4623;-66
2023/08/01 04:43:20;;;;;;;;;;;;;;;22.36;49.86;94732.97;10454750;28;1992;-66
2023/08/01 04:48:20;;;;;;;;;;;;;;;22.36;50.00;94720.53;10455180;28;1897;-67
2023/08/01 04:53:20;;;;;;;;;;;;;;;22.36;50.01;94711.84;10447472;28;2166;-67
2023/08/01 04:58:20;;;;;;;;;;;;;;;22.33;50.15;94723.78;10451528;28;2707;-67
2023/08/01 05:03:21;;;;;;;;;;;;;;;22.33;50.33;94709.81;10454163;28;2158;-66
2023/08/01 05:08:21;;;;;;;;;;;;;;;22.34;50.61;94695.53;10450692;28;1932;-66
2023/08/01 05:13:21;;;;;;;;;;;;;;;22.32;50.75;94693.19;10455631;28;2020;-69
2023/08/01 05:18:22;;;;;;;;;;;;;;;22.31;50.70;94688.22;10453688;28;2252;-67
2023/08/01 05:23:22;;;;;;;;;;;;;;;22.27;51.04;94677.50;10445844;28;2079;-68
2023/08/01 05:28:22;;;;;;;;;;;;;;;22.30;51.08;94662.88;10445312;28;2084;-66
2023/08/01 05:33:22;;;;;;;;;;;;;;;22.29;51.24;94664.00;10446731;28;2198;-66
2023/08/01 05:38:23;;;;;;;;;;;;;;;22.27;51.27;94668.81;10451956;28;4566;-67
2023/08/01 05:43:23;;;;;;;;;;;;;;;22.26;51.44;94683.88;10435812;28;1917;-67
2023/08/01 05:48:23;;;;;;;;;;;;;;;22.23;51.81;94687.13;10441882;28;2174;-68
2023/08/01 05:53:23;;;;;;;;;;;;;;;22.22;51.35;94687.41;10436929;28;2409;-69
2023/08/01 05:58:24;;;;;;;;;;;;;;;22.18;51.90;94674.06;10437992;28;2213;-65
2023/08/01 06:03:24;;;;;;;;;;;;;;;22.14;51.72;94688.19;10429603;28;1995;-66
2023/08/01 06:08:25;;;;;;;;;;;;;;;22.12;51.72;94670.03;10436185;28;2072;-65
2023/08/01 06:13:25;;;;;;;;;;;;;;;22.13;51.73;94663.69;10442811;28;1930;-65
2023/08/01 06:18:25;;;;;;;;;;;;;;;22.07;51.91;94667.53;10437632;28;2048;-65
2023/08/01 06:23:25;;;;;;;;;;;;;;;22.07;51.88;94653.56;10434155;28;1931;-64
2023/08/01 06:28:26;;;;;;;;;;;;;;;22.04;51.83;94646.25;10433932;28;1993;-65
2023/08/01 06:33:26;;;;;;;;;;;;;;;22.02;51.60;94630.75;10438829;28;1999;-65
2023/08/01 06:38:26;;;;;;;;;;;;;;;22.02;51.62;94608.84;10469306;28;1862;-66
2023/08/01 06:43:27;;;;;;;;;;;;;;;22.00;51.56;94595.97;10436157;28;2011;-64
2023/08/01 06:48:27;;;;;;;;;;;;;;;21.98;51.38;94586.81;10433341;28;1831;-65
2023/08/01 06:53:27;;;;;;;;;;;;;;;21.96;51.17;94573.94;10437484;28;2353;-65
2023/08/01 06:58:27;;;;;;;;;;;;;;;21.94;51.04;94564.78;10431342;28;2102;-65
2023/08/01 07:03:28;;;;;;;;;;;;;;;21.92;50.62;94557.16;10433422;28;2116;-65
2023/08/01 07:08:28;;;;;;;;;;;;;;;21.87;50.32;94554.66;10430387;28;1843;-65
2023/08/01 07:13:28;;;;;;;;;;;;;;;21.87;50.40;94559.94;10442061;28;1818;-65
2023/08/01 07:18:29;;;;;;;;;;;;;;;21.85;49.76;94536.53;10436830;28;1866;-64
2023/08/01 07:23:30;;;;;;;;;;;;;;;21.83;49.89;94522.09;10431821;28;1913;-65
2023/08/01 07:28:30;;;;;;;;;;;;;;;21.82;49.79;94526.56;10435097;28;2056;-64
2023/08/01 07:33:31;;;;;;;;;;;;;;;21.82;49.52;94536.38;10428066;28;1990;-65
2023/08/01 07:38:31;;;;;;;;;;;;;;;21.82;49.41;94546.94;10430981;28;4474;-65
2023/08/01 07:43:32;;;;;;;;;;;;;;;21.79;49.32;94521.91;10438880;28;2317;-65
2023/08/01 07:48:32;;;;;;;;;;;;;;;21.78;49.05;94511.69;10432333;28;1908;-65
2023/08/01 07:53:32;;;;;;;;;;;;;;;21.78;48.82;94503.75;10465725;28;2049;-65
2023/08/01 07:58:33;;;;;;;;;;;;;;;21.74;48.55;94500.19;10429716;28;1979;-65
2023/08/01 08:03:33;;;;;;;;;;;;;;;21.76;48.54;94519.13;10427561;28;1914;-66
2023/08/01 08:08:33;;;;;;;;;;;;;;;21.79;48.71;94571.25;10429290;28;1920;-65
2023/08/01 08:13:34;;;;;;;;;;;;;;;21.82;48.76;94552.97;10435421;28;1965;-64
2023/08/01 08:18:34;;;;;;;;;;;;;;;21.85;48.51;94527.81;10432099;28;1971;-65
2023/08/01 08:23:34;;;;;;;;;;;;;;;21.88;48.67;94529.84;10440382;28;1977;-65
2023/08/01 08:28:34;;;;;;;;;;;;;;;21.91;48.68;94552.22;10438241;28;1807;-64
2023/08/01 08:33:35;;;;;;;;;;;;;;;21.93;48.64;94553.44;10436137;28;1886;-66
2023/08/01 08:38:35;;;;;;;;;;;;;;;21.95;48.64;94535.44;10437973;28;4546;-65
2023/08/01 08:43:35;;;;;;;;;;;;;;;21.98;48.60;94542.75;10439854;28;2266;-65
2023/08/01 08:48:35;;;;;;;;;;;;;;;21.99;48.73;94532.97;10469993;28;2013;-65
2023/08/01 08:53:36;;;;;;;;;;;;;;;22.01;49.02;94568.47;10445567;28;1952;-65
2023/08/01 08:58:38;;;;;;;;;;;;;;;22.02;48.73;94575.34;10446169;28;1829;-64
2023/08/01 09:03:38;;;;;;;;;;;;;;;22.01;48.58;94568.47;10443167;28;1914;-64
2023/08/01 09:08:39;;;;;;;;;;;;;;;22.01;48.68;94560.56;10439427;28;2008;-65
2023/08/01 09:13:39;;;;;;;;;;;;;;;22.02;48.82;94556.06;10442941;28;1802;-64
2023/08/01 09:18:47;;;;;;;;;;;;;;;22.02;48.41;94546.31;10443439;28;2082;-65
2023/08/01 09:23:47;;;;;;;;;;;;;;;22.01;48.68;94568.47;10444993;28;1944;-64
2023/08/01 09:28:56;;;;;;;;;;;;;;;22.00;48.44;94576.72;10444854;28;1814;-65
2023/08/01 09:33:57;;;;;;;;;;;;;;;21.98;48.41;94577.03;10441956;28;1870;-64
2023/08/01 09:38:59;;;;;;;;;;;;;;;21.99;48.60;94602.31;10442773;28;4644;-64
2023/08/01 09:43:59;;;;;;;;;;;;;;;22.01;48.51;94594.88;10437180;28;1923;-65
2023/08/01 09:49:07;;;;;;;;;;;;;;;22.02;48.53;94593.81;10440328;28;2050;-64
2023/08/01 09:54:07;;;;;;;;;;;;;;;22.00;48.60;94590.69;10437902;28;1889;-65
2023/08/01 09:59:07;;;;;;;;;;;;;;;22.02;48.48;94593.81;10434441;28;1942;-65
2023/08/01 10:04:07;;;;;;;;;;;;;;;22.01;48.59;94591.47;10442112;28;1987;-65
2023/08/01 10:09:09;;;;;;;;;;;;;;;21.98;48.48;94592.88;10432411;28;1878;-65
2023/08/01 10:14:10;;;;;;;;;;;;;;;21.95;48.34;94613.84;10435656;28;1830;-65
2023/08/01 10:19:11;;;;;;;;;;;;;;;21.94;48.24;94626.25;10432391;28;1950;-65
2023/08/01 10:24:12;;;;;;;;;;;;;;;21.84;48.24;94629.94;10434351;28;1918;-64
2023/08/01 10:29:12;;;;;;;;;;;;;;;21.89;48.36;94644.84;10440376;28;2059;-65
2023/08/01 10:34:13;;;;;;;;;;;;;;;21.86;48.84;94637.56;10437015;28;2097;-65
2023/08/01 10:39:20;;;;;;;;;;;;;;;21.95;48.85;94619.88;10432413;28;4356;-65
2023/08/01 10:44:20;;;;;;;;;;;;;;;22.01;48.69;94615.22;10443646;28;1913;-65
2023/08/01 10:49:21;;;;;;;;;;;;;;;22.04;48.99;94602.19;10438377;28;1787;-65
2023/08/01 10:54:22;;;;;;;;;;;;;;;22.08;48.91;94602.34;10435734;28;1977;-65
2023/08/01 10:59:22;;;;;;;;;;;;;;;22.10;48.66;94569.28;10432629;28;1870;-65
2023/08/01 11:04:23;;;;;;;;;;;;;;;22.13;48.74;94544.13;10431427;28;2158;-65
2023/08/01 11:09:23;;;;;;;;;;;;;;;22.16;48.59;94561.97;10436998;28;2034;-65
2023/08/01 11:14:27;;;;;;;;;;;;;;;22.17;48.88;94563.53;10435146;28;1838;-65
2023/08/01 11:19:27;;;;;;;;;;;;;;;22.18;48.89;94565.84;10429067;28;1894;-65
2023/08/01 11:24:28;;;;;;;;;;;;;;;22.20;48.89;94582.16;10432462;28;1927;-65
2023/08/01 11:29:28;;;;;;;;;;;;;;;22.22;48.81;94603.72;10437679;28;2005;-65
2023/08/01 11:34:28;;;;;;;;;;;;;;;22.22;48.87;94598.47;10437903;28;2431;-65
2023/08/01 11:39:28;;;;;;;;;;;;;;;22.24;48.98;94609.47;10433858;28;4614;-66
2023/08/01 11:44:29;;;;;;;;;;;;;;;22.25;48.99;94607.63;10440908;28;2016;-66
2023/08/01 11:49:29;;;;;;;;;;;;;;;22.26;49.11;94604.66;10433638;28;1903;-65
2023/08/01 11:54:30;;;;;;;;;;;;;;;22.27;48.94;94605.44;10433153;28;2093;-66
2023/08/01 11:59:30;;;;;;;;;;;;;;;22.28;48.81;94601.72;10432433;28;2031;-65
2023/08/01 12:04:30;;;;;;;;;;;;;;;22.29;49.10;94616.47;10431738;28;1973;-66
2023/08/01 12:09:31;;;;;;;;;;;;;;;22.29;48.83;94606.69;10430231;28;2018;-66
2023/08/01 12:14:31;;;;;;;;;;;;;;;22.31;48.95;94616.94;10440374;28;1850;-66
2023/08/01 12:19:33;;;;;;;;;;;;;;;22.31;48.99;94630.91;10443811;28;1881;-67
2023/08/01 12:24:36;;;;;;;;;;;;;;;22.31;48.95;94633.56;10439592;28;1948;-66
2023/08/01 12:29:37;;;;;;;;;;;;;;;22.31;49.22;94644.13;10436689;28;2265;-66
2023/08/01 12:34:37;;;;;;;;;;;;;;;22.33;49.14;94643.81;10443035;28;2140;-65
2023/08/01 12:39:37;;;;;;;;;;;;;;;22.33;48.97;94631.38;10441634;28;4504;-65
2023/08/01 12:44:37;;;;;;;;;;;;;;;22.34;49.04;94630.28;10449996;28;1906;-65
2023/08/01 12:49:38;;;;;;;;;;;;;;;22.35;49.05;94634.50;10444504;28;2065;-66
2023/08/01 12:54:38;;;;;;;;;;;;;;;22.36;49.09;94627.34;10442554;28;1885;-66
2023/08/01 12:59:38;;;;;;;;;;;;;;;22.37;49.37;94642.88;10444137;28;1901;-66
2023/08/01 13:04:39;;;;;;;;;;;;;;;22.38;49.11;94628.56;10438548;28;1984;-68
2023/08/01 13:09:39;;;;;;;;;;;;;;;22.37;49.14;94637.59;10444366;28;1999;-66
2023/08/01 13:14:39;;;;;;;;;;;;;;;22.38;49.14;94618.00;10438008;28;1846;-66
2023/08/01 13:19:40;;;;;;;;;;;;;;;22.39;49.47;94635.41;10446446;28;1932;-66
2023/08/01 13:24:40;;;;;;;;;;;;;;;22.41;49.31;94621.91;10438782;28;2382;-65
2023/08/01 13:29:40;;;;;;;;;;;;;;;22.40;49.23;94626.41;10438174;28;1830;-65
2023/08/01 13:34:40;;;;;;;;;;;;;;;22.42;49.58;94623.47;10443621;28;2068;-66
2023/08/01 13:39:41;;;;;;;;;;;;;;;22.43;49.57;94620.50;10441677;28;4634;-65
2023/08/01 13:44:41;;;;;;;;;;;;;;;22.43;49.39;94636.34;10436003;28;1930;-66
2023/08/01 13:49:41;;;;;;;;;;;;;;;22.43;49.64;94631.06;10447642;28;1987;-65
2023/08/01 13:54:41;;;;;;;;;;;;;;;22.45;49.59;94626.25;10433704;28;1993;-66
2023/08/01 13:59:42;;;;;;;;;;;;;;;22.45;49.60;94620.97;10454215;28;1895;-65
2023/08/01 14:04:42;;;;;;;;;;;;;;;22.46;49.58;94634.97;10437009;28;1987;-65
2023/08/01 14:09:42;;;;;;;;;;;;;;;22.47;49.87;94624.06;10432468;28;1854;-67
2023/08/01 14:14:42;;;;;;;;;;;;;;;22.47;49.96;94618.78;10436267;28;2069;-67
2023/08/01 14:19:43;;;;;;;;;;;;;;;22.47;50.09;94610.88;10438159;28;2209;-67
2023/08/01 14:24:43;;;;;;;;;;;;;;;22.48;49.96;94596.56;10431948;28;1902;-65
2023/08/01 14:29:43;;;;;;;;;;;;;;;22.49;49.63;94636.97;10442057;28;1877;-65
2023/08/01 14:34:44;;;;;;;;;;;;;;;22.50;49.89;94646.44;10446716;28;1834;-65
2023/08/01 14:39:44;;;;;;;;;;;;;;;22.50;49.86;94651.72;10445095;28;4529;-65
2023/08/01 14:44:44;;;;;;;;;;;;;;;22.50;50.09;94641.91;10470583;28;1910;-65
2023/08/01 14:49:45;;;;;;;;;;;;;;;22.51;50.01;94643.50;10436847;28;2101;-65
2023/08/01 14:54:45;;;;;;;;;;;;;;;22.51;49.98;94648.00;10437148;28;1846;-65
2023/08/01 14:59:45;;;;;;;;;;;;;;;22.52;49.73;94654.84;10436720;28;1823;-64
2023/08/01 15:04:45;;;;;;;;;;;;;;;22.52;50.10;94663.50;10436281;28;2005;-65
2023/08/01 15:09:46;;;;;;;;;;;;;;;22.53;49.84;94672.22;10435155;28;1881;-65
2023/08/01 15:14:46;;;;;;;;;;;;;;;22.52;50.33;94666.16;10440323;28;1889;-64
2023/08/01 15:19:47;;;;;;;;;;;;;;;22.53;50.17;94699.41;10440477;28;2288;-65
2023/08/01 15:24:47;;;;;;;;;;;;;;;22.52;49.89;94697.84;10432779;28;1910;-66
2023/08/01 15:29:47;;;;;;;;;;;;;;;22.52;50.18;94682.00;10430740;28;1893;-66
2023/08/01 15:34:47;;;;;;;;;;;;;;;22.53;49.91;94669.59;10438865;28;1933;-66
2023/08/01 15:39:48;;;;;;;;;;;;;;;22.53;50.15;94654.53;10439187;28;2233;-72
2023/08/01 15:44:49;;;;;;;;;;;;;;;22.53;50.23;94636.03;10436523;28;1985;-69
2023/08/01 15:49:49;;;;;;;;;;;;;;;22.53;50.08;94633.38;10470671;28;1882;-69
2023/08/01 15:54:49;;;;;;;;;;;;;;;22.54;50.10;94652.66;10444149;28;2044;-71
2023/08/01 15:59:49;;;;;;;;;;;;;;;22.55;50.45;94659.47;10445989;28;1998;-70
2023/08/01 16:04:50;;;;;;;;;;;;;;;22.55;50.52;94657.63;10480871;28;1988;-71
2023/08/01 16:09:50;;;;;;;;;;;;;;;22.58;50.43;94653.63;10450104;28;1892;-72
2023/08/01 16:14:51;;;;;;;;;;;;;;;22.51;50.68;94677.03;10449375;28;2290;-76
2023/08/01 16:19:51;;;;;;;;;;;;;;;22.52;50.55;94676.72;10454941;28;1866;-69
2023/08/01 16:24:51;;;;;;;;;;;;;;;22.53;50.69;94675.66;10449963;28;2081;-69
2023/08/01 16:29:52;;;;;;;;;;;;;;;22.54;50.46;94679.06;10443647;28;2019;-70
2023/08/01 16:34:52;;;;;;;;;;;;;;;22.54;50.64;94687.00;10455987;28;1858;-68
2023/08/01 16:39:52;;;;;;;;;;;;;;;22.54;50.80;94679.84;10450311;28;4449;-68
2023/08/01 16:44:52;;;;;;;;;;;;;;;22.55;50.56;94673.47;10465058;28;1969;-70
2023/08/01 16:49:53;;;;;;;;;;;;;;;22.56;50.72;94675.03;10456303;28;1814;-68
2023/08/01 16:54:54;;;;;;;;;;;;;;;22.54;50.64;94671.94;10463696;28;1842;-70
2023/08/01 16:59:54;;;;;;;;;;;;;;;22.57;50.45;94676.56;10455404;28;1901;-70
2023/08/01 17:04:54;;;;;;;;;;;;;;;22.57;50.23;94678.44;10448892;28;1988;-68
2023/08/01 17:09:55;;;;;;;;;;;;;;;22.55;50.38;94681.41;10447434;28;2236;-69
2023/08/01 17:14:55;;;;;;;;;;;;;;;22.58;50.51;94685.31;10451111;28;1954;-68
2023/08/01 17:19:55;;;;;;;;;;;;;;;22.58;50.37;94695.88;10447247;28;1846;-68
2023/08/01 17:24:56;;;;;;;;;;;;;;;22.57;50.51;94700.34;10445493;28;1906;-69
2023/08/01 17:29:56;;;;;;;;;;;;;;;22.58;50.22;94712.50;10449124;28;1834;-67
2023/08/01 17:34:56;;;;;;;;;;;;;;;22.58;50.34;94717.00;10450893;28;1978;-68
2023/08/01 17:39:56;;;;;;;;;;;;;;;22.58;50.58;94719.66;10449720;28;4584;-67
2023/08/01 17:44:57;;;;;;;;;;;;;;;22.58;50.37;94723.06;10438994;28;2017;-68
2023/08/01 17:49:57;;;;;;;;;;;;;;;22.58;50.44;94724.94;10448857;28;1824;-69
2023/08/01 17:54:57;;;;;;;;;;;;;;;22.58;50.35;94733.63;10438977;28;1889;-68
2023/08/01 17:59:58;;;;;;;;;;;;;;;22.58;50.48;94743.41;10440987;28;2020;-68
2023/08/01 18:04:58;;;;;;;;;;;;;;;22.58;50.26;94749.47;10445012;28;2300;-64
2023/08/01 18:09:58;;;;;;;;;;;;;;;22.58;50.12;94757.41;10438145;28;1838;-65
2023/08/01 18:14:59;;;;;;;;;;;;;;;22.58;50.28;94764.53;10446779;28;1889;-65
2023/08/01 18:19:59;;;;;;;;;;;;;;;22.59;50.21;94769.50;10451034;28;1869;-65
2023/08/01 18:24:59;;;;;;;;;;;;;;;22.58;50.43;94775.91;10447507;28;1980;-64
2023/08/01 18:29:59;;;;;;;;;;;;;;;22.58;50.39;94778.53;10446489;28;2109;-63
2023/08/01 18:35:00;;;;;;;;;;;;;;;22.59;50.22;94787.22;10442928;28;1849;-62
2023/08/01 18:40:00;;;;;;;;;;;;;;;22.58;50.22;94781.19;10453071;28;4529;-64
2023/08/01 18:45:00;;;;;;;;;;;;;;;22.59;50.29;94806.50;10450483;28;1902;-65
2023/08/01 18:50:01;;;;;;;;;;;;;;;22.60;50.39;94810.69;10441366;28;1932;-64
2023/08/01 18:55:01;;;;;;;;;;;;;;;22.59;50.08;94803.06;10444306;28;1889;-64
2023/08/01 19:00:01;;;;;;;;;;;;;;;22.59;50.47;94813.63;10452527;28;1936;-65
2023/08/01 19:05:05;;;;;;;;;;;;;;;22.59;50.53;94822.34;10444228;28;2400;-65
2023/08/01 19:10:06;;;;;;;;;;;;;;;22.61;50.37;94829.94;10442001;28;1903;-65
2023/08/01 19:15:06;;;;;;;;;;;;;;;22.60;50.32;94831.06;10445237;28;1906;-65
2023/08/01 19:20:07;;;;;;;;;;;;;;;22.60;50.35;94837.13;10443201;28;1949;-65
2023/08/01 19:25:07;;;;;;;;;;;;;;;22.60;50.39;94838.97;10442691;28;2132;-65
2023/08/01 19:30:07;;;;;;;;;;;;;;;22.59;50.26;94830.25;10445817;28;2046;-66
2023/08/01 19:35:08;;;;;;;;;;;;;;;22.59;50.31;94856.69;10445549;28;2110;-65
2023/08/01 19:40:08;;;;;;;;;;;;;;;22.59;50.15;94861.97;10440723;28;4593;-65
2023/08/01 19:45:09;;;;;;;;;;;;;;;22.59;50.12;94866.47;10442586;28;2016;-67
2023/08/01 19:50:09;;;;;;;;;;;;;;;22.60;50.10;94870.66;10449558;28;1945;-67
2023/08/01 19:55:09;;;;;;;;;;;;;;;22.35;50.56;94860.78;10443841;28;1845;-67
2023/08/01 20:00:11;;;;;;;;;;;;;;;22.31;50.17;94884.38;10437697;28;2190;-66
2023/08/01 20:05:11;;;;;;;;;;;;;;;22.27;50.23;94883.44;10436978;28;2389;-66
2023/08/01 20:10:11;;;;;;;;;;;;;;;22.17;50.63;94883.69;10444096;28;1914;-66
2023/08/01 20:15:11;;;;;;;;;;;;;;;22.18;50.33;94916.13;10439838;28;1935;-61
2023/08/01 20:20:12;;;;;;;;;;;;;;;22.18;50.78;94903.72;10443057;28;1830;-64
2023/08/01 20:25:12;;;;;;;;;;;;;;;22.17;50.86;94906.66;10441977;28;1910;-65
2023/08/01 20:30:13;;;;;;;;;;;;;;;22.17;51.01;94918.00;10443232;28;1830;-72
2023/08/01 20:35:13;;;;;;;;;;;;;;;22.15;51.38;94920.19;10475958;28;1889;-69
2023/08/01 20:40:13;;;;;;;;;;;;;;;22.12;51.73;94925.25;10449433;28;4564;-69
2023/08/01 20:45:13;;;;;;;;;;;;;;;22.08;51.95;94925.09;10479713;28;2085;-70
2023/08/01 20:50:14;;;;;;;;;;;;;;;22.03;52.31;94933.13;10457672;28;1950;-71
2023/08/01 20:55:14;;;;;;;;;;;;;;;22.02;52.28;94930.78;10458343;28;2426;-71
2023/08/01 21:00:15;;;;;;;;;;;;;;;22.01;51.88;94942.44;10444194;28;2014;-70
2023/08/01 21:05:15;;;;;;;;;;;;;;;21.97;52.43;94918.50;10450050;28;1947;-68
2023/08/01 21:10:15;;;;;;;;;;;;;;;21.94;52.68;94940.22;10480494;28;1798;-69
2023/08/01 21:15:16;;;;;;;;;;;;;;;21.93;52.35;94941.28;10452663;28;1897;-70
2023/08/01 21:20:16;;;;;;;;;;;;;;;21.90;52.62;94939.28;10455819;28;1870;-70
2023/08/01 21:25:17;;;;;;;;;;;;;;;21.88;52.51;94938.00;10448332;28;2028;-69
2023/08/01 21:30:17;;;;;;;;;;;;;;;21.85;52.60;94952.56;10446624;28;2124;-72
2023/08/01 21:35:17;;;;;;;;;;;;;;;21.83;52.40;94947.59;10479695;28;1963;-69
2023/08/01 21:40:18;;;;;;;;;;;;;;;21.82;52.63;94943.41;10443765;28;4387;-70
2023/08/01 21:45:19;;;;;;;;;;;;;;;21.80;52.62;94958.72;10451696;28;1913;-74
2023/08/01 21:50:20;;;;;;;;;;;;;;;21.80;52.66;94955.31;10440571;28;2042;-71
2023/08/01 21:55:20;;;;;;;;;;;;;;;21.81;52.45;94964.78;10449797;28;1930;-72
2023/08/01 22:00:22;;;;;;;;;;;;;;;21.74;52.33;94972.34;10454753;28;1862;-70
2023/08/01 22:05:22;;;;;;;;;;;;;;;21.71;52.47;94973.72;10458312;28;1935;-69
2023/08/01 22:10:26;;;;;;;;;;;;;;;21.69;52.66;94972.44;10452929;28;1861;-69
2023/08/01 22:15:26;;;;;;;;;;;;;;;21.70;52.71;94977.41;10452224;28;1858;-69
2023/08/01 22:20:27;;;;;;;;;;;;;;;21.69;52.61;94983.78;10448951;28;1901;-69
2023/08/01 22:25:27;;;;;;;;;;;;;;;21.67;52.68;94983.31;10457177;28;1985;-69
2023/08/01 22:30:27;;;;;;;;;;;;;;;21.67;52.64;94980.66;10441407;28;2000;-69
2023/08/01 22:35:28;;;;;;;;;;;;;;;21.66;52.60;94988.84;10439175;28;1999;-70
2023/08/01 22:40:28;;;;;;;;;;;;;;;21.64;52.63;94983.09;10484201;28;4580;-70
2023/08/01 22:45:28;;;;;;;;;;;;;;;21.59;52.54;94985.88;10444979;28;1963;-70
2023/08/01 22:50:32;;;;;;;;;;;;;;;21.58;52.70;94992.22;10480474;28;2287;-69
2023/08/01 22:55:32;;;;;;;;;;;;;;;21.53;52.74;94979.94;10450219;28;1891;-70
2023/08/01 23:00:32;;;;;;;;;;;;;;;21.49;52.64;94989.53;10441712;28;1810;-70
2023/08/01 23:05:33;;;;;;;;;;;;;;;21.49;52.84;94996.66;10482880;28;1906;-70
2023/08/01 23:10:33;;;;;;;;;;;;;;;21.44;52.56;94997.53;10442296;28;1834;-70
2023/08/01 23:15:33;;;;;;;;;;;;;;;21.44;52.73;95004.66;10448547;28;1815;-70
2023/08/01 23:20:33;;;;;;;;;;;;;;;21.45;52.60;95022.03;10450608;28;1830;-70
2023/08/01 23:25:34;;;;;;;;;;;;;;;21.42;52.58;95030.53;10445901;28;1906;-70
2023/08/01 23:30:34;;;;;;;;;;;;;;;21.38;52.22;95030.34;10472367;28;2187;-70
2023/08/01 23:35:35;;;;;;;;;;;;;;;21.36;52.33;95027.22;10449342;28;1878;-70
2023/08/01 23:40:35;;;;;;;;;;;;;;;21.36;52.02;95021.97;10445126;28;4494;-70
2023/08/01 23:45:35;;;;;;;;;;;;;;;21.36;51.78;95023.81;10442483;28;2482;-70
2023/08/01 23:50:37;;;;;;;;;;;;;;;21.30;51.89;95025.00;10446699;28;2073;-70
2023/08/01 23:55:37;;;;;;;;;;;;;;;21.30;51.81;95030.25;10453127;28;1872;-70
